Time;durP1;ratioP1;P1;durP2;ratioP2;P2;SDS_P1;SDS_P2;PMS_P1;PMS_P2;Temp;Humidity;BMP_temperature;BMP_pressure;BME280_temperature;BME280_humidity;BME280_pressure;Samples;Min_cycle;Max_cycle;Signal;HPM_P1;HPM_P2
2021/12/10 00:00:26;;;;;;;80.30;45.70;;;;;;;;;;4983432;28;20420;-76
2021/12/10 00:02:52;;;;;;;78.07;46.43;;;;;;;;;;4972872;28;20414;-76
2021/12/10 00:05:30;;;;;;;77.97;44.30;;;;;;;;;;4993256;28;20416;-77
2021/12/10 00:07:56;;;;;;;71.87;42.43;;;;;;;;;;4979708;28;21443;-76
2021/12/10 00:10:25;;;;;;;81.30;45.13;;;;;;;;;;4966304;28;20424;-76
2021/12/10 00:12:52;;;;;;;77.70;44.90;;;;;;;;;;4995618;28;20425;-76
2021/12/10 00:15:26;;;;;;;65.37;40.13;;;;;;;;;;4983973;28;20424;-76
2021/12/10 00:17:53;;;;;;;77.50;45.37;;;;;;;;;;4979206;28;20490;-76
2021/12/10 00:20:23;;;;;;;90.90;46.47;;;;;;;;;;4979804;28;21305;-76
2021/12/10 00:22:55;;;;;;;83.17;45.93;;;;;;;;;;4977662;28;20429;-76
2021/12/10 00:25:23;;;;;;;78.53;45.40;;;;;;;;;;4980438;28;20424;-76
2021/12/10 00:27:50;;;;;;;83.70;46.53;;;;;;;;;;4993001;28;20421;-76
2021/12/10 00:30:24;;;;;;;65.60;39.43;;;;;;;;;;4979715;28;20424;-76
2021/12/10 00:32:58;;;;;;;76.03;44.60;;;;;;;;;;4978648;28;21713;-76
2021/12/10 00:35:26;;;;;;;77.13;43.40;;;;;;;;;;4978307;28;20474;-76
2021/12/10 00:37:53;;;;;;;89.60;49.73;;;;;;;;;;4978823;28;20567;-76
2021/12/10 00:40:20;;;;;;;79.57;46.30;;;;;;;;;;4992488;28;21300;-76
2021/12/10 00:42:46;;;;;;;80.50;45.50;;;;;;;;;;4981688;28;20428;-76
2021/12/10 00:45:14;;;;;;;90.87;49.73;;;;;;;;;;4979305;28;20428;-76
2021/12/10 00:47:40;;;;;;;77.77;43.80;;;;;;;;;;4979160;28;20460;-76
2021/12/10 00:50:09;;;;;;;81.07;45.03;;;;;;;;;;4977697;28;21247;-76
2021/12/10 00:52:35;;;;;;;91.93;47.93;;;;;;;;;;4974459;28;20608;-76
2021/12/10 00:55:01;;;;;;;85.80;45.97;;;;;;;;;;4978091;28;20505;-76
2021/12/10 00:57:27;;;;;;;64.03;38.10;;;;;;;;;;4975955;28;20428;-76
2021/12/10 00:59:53;;;;;;;77.60;42.63;;;;;;;;;;4976767;28;20493;-76
2021/12/10 01:02:21;;;;;;;71.77;43.13;;;;;;;;;;4979026;28;20432;-76
2021/12/10 01:04:49;;;;;;;80.50;45.07;;;;;;;;;;4979416;28;20412;-76
2021/12/10 01:07:16;;;;;;;89.50;47.57;;;;;;;;;;4978189;28;20431;-76
2021/12/10 01:09:45;;;;;;;68.17;39.93;;;;;;;;;;4978893;28;20513;-76
2021/12/10 01:12:13;;;;;;;72.83;41.80;;;;;;;;;;4974620;28;20448;-76
2021/12/10 01:15:00;;;;;;;82.63;44.87;;;;;;;;;;4992577;28;20484;-76
2021/12/10 01:26:36;;;;;;;93.37;48.30;;;;;;;;;;4975982;28;20484;-75
2021/12/10 01:28:43;;;;;;;89.70;48.23;;;;;;;;;;4977820;28;20428;-75
2021/12/10 01:31:09;;;;;;;82.00;44.63;;;;;;;;;;4978456;28;20424;-76
2021/12/10 01:33:35;;;;;;;93.80;51.23;;;;;;;;;;4979745;28;20433;-76
2021/12/10 01:36:07;;;;;;;70.43;42.60;;;;;;;;;;4976098;28;20433;-76
2021/12/10 01:38:33;;;;;;;93.63;51.10;;;;;;;;;;4977378;28;20440;-76
2021/12/10 01:41:00;;;;;;;74.73;44.33;;;;;;;;;;4979821;28;20466;-76
2021/12/10 01:43:31;;;;;;;80.97;45.60;;;;;;;;;;4977738;28;22273;-76
2021/12/10 01:46:05;;;;;;;103.27;54.27;;;;;;;;;;4978437;28;20604;-76
2021/12/10 01:48:33;;;;;;;86.80;44.30;;;;;;;;;;4978394;28;20467;-76
2021/12/10 01:51:00;;;;;;;72.87;40.83;;;;;;;;;;4970075;28;20435;-76
2021/12/10 01:53:29;;;;;;;70.80;39.67;;;;;;;;;;4978404;28;21141;-76
2021/12/10 01:55:57;;;;;;;75.87;40.23;;;;;;;;;;4980062;28;20561;-76
2021/12/10 01:58:25;;;;;;;77.57;42.63;;;;;;;;;;4991073;28;21194;-76
2021/12/10 02:01:04;;;;;;;70.90;38.77;;;;;;;;;;4976492;28;20427;-76
2021/12/10 02:03:31;;;;;;;68.87;37.57;;;;;;;;;;4991364;28;20417;-75
2021/12/10 02:05:57;;;;;;;60.83;34.57;;;;;;;;;;4979447;28;20504;-76
2021/12/10 02:08:23;;;;;;;88.07;44.87;;;;;;;;;;4973023;28;20466;-76
2021/12/10 02:10:49;;;;;;;67.23;38.17;;;;;;;;;;4974779;28;21361;-76
2021/12/10 02:13:16;;;;;;;57.30;34.47;;;;;;;;;;4960542;28;20424;-76
2021/12/10 02:15:42;;;;;;;66.83;37.80;;;;;;;;;;4977511;28;20421;-76
2021/12/10 02:18:11;;;;;;;62.30;36.60;;;;;;;;;;4990428;28;21103;-76
2021/12/10 02:20:45;;;;;;;56.27;34.80;;;;;;;;;;4991297;28;20893;-76
2021/12/10 02:23:12;;;;;;;59.23;34.73;;;;;;;;;;4977383;28;21816;-76
2021/12/10 02:25:38;;;;;;;71.70;41.03;;;;;;;;;;4980372;28;20416;-76
2021/12/10 02:28:06;;;;;;;70.07;40.17;;;;;;;;;;4993617;28;20428;-77
2021/12/10 02:30:32;;;;;;;62.03;35.90;;;;;;;;;;4974584;28;20414;-75
2021/12/10 02:32:58;;;;;;;66.83;37.50;;;;;;;;;;4991767;28;20428;-76
2021/12/10 02:35:25;;;;;;;64.87;37.53;;;;;;;;;;4991935;28;21058;-76
2021/12/10 02:37:51;;;;;;;79.30;43.57;;;;;;;;;;4975375;28;20634;-76
2021/12/10 02:40:18;;;;;;;67.83;37.83;;;;;;;;;;4990132;28;20425;-76
2021/12/10 02:42:45;;;;;;;59.33;35.60;;;;;;;;;;4992955;28;20479;-76
2021/12/10 02:45:15;;;;;;;62.10;35.87;;;;;;;;;;4978054;28;20569;-76
2021/12/10 02:47:42;;;;;;;62.70;36.77;;;;;;;;;;4974658;28;20555;-76
2021/12/10 02:50:09;;;;;;;65.20;37.00;;;;;;;;;;4979560;28;20428;-76
2021/12/10 02:52:35;;;;;;;62.43;37.20;;;;;;;;;;4976237;28;20875;-76
2021/12/10 02:55:01;;;;;;;61.27;36.00;;;;;;;;;;4975481;28;20425;-76
2021/12/10 02:57:27;;;;;;;59.07;34.50;;;;;;;;;;4974950;28;21512;-76
2021/12/10 02:59:54;;;;;;;60.93;36.27;;;;;;;;;;4980681;28;21366;-76
2021/12/10 03:02:22;;;;;;;63.47;37.23;;;;;;;;;;4973970;28;21246;-76
2021/12/10 03:04:49;;;;;;;68.53;37.90;;;;;;;;;;4978859;28;20431;-76
2021/12/10 03:07:16;;;;;;;57.70;34.23;;;;;;;;;;4991773;28;20413;-76
2021/12/10 03:09:43;;;;;;;63.20;36.53;;;;;;;;;;4977869;28;20416;-76
2021/12/10 03:12:10;;;;;;;74.53;41.67;;;;;;;;;;4978667;28;20412;-76
2021/12/10 03:14:37;;;;;;;66.50;37.17;;;;;;;;;;4990480;28;20420;-76
2021/12/10 03:17:05;;;;;;;63.63;36.37;;;;;;;;;;4994878;28;20420;-76
2021/12/10 03:19:31;;;;;;;67.40;38.27;;;;;;;;;;4990508;28;21326;-76
2021/12/10 03:21:57;;;;;;;64.50;36.37;;;;;;;;;;4973309;28;21567;-76
2021/12/10 03:24:25;;;;;;;69.00;40.17;;;;;;;;;;4990268;28;20409;-76
2021/12/10 03:26:52;;;;;;;74.23;40.70;;;;;;;;;;4978805;28;20422;-76
2021/12/10 03:29:22;;;;;;;65.97;39.07;;;;;;;;;;4990704;28;20425;-76
2021/12/10 03:31:49;;;;;;;74.07;43.17;;;;;;;;;;4981882;28;20424;-76
2021/12/10 03:34:15;;;;;;;74.77;42.80;;;;;;;;;;4981544;28;20420;-77
2021/12/10 03:36:45;;;;;;;75.93;43.03;;;;;;;;;;4979055;28;20448;-76
2021/12/10 03:39:13;;;;;;;72.20;40.93;;;;;;;;;;4982238;28;21106;-76
2021/12/10 03:41:39;;;;;;;74.13;42.60;;;;;;;;;;4980218;28;20432;-77
2021/12/10 03:44:06;;;;;;;67.57;39.00;;;;;;;;;;4981298;28;20448;-76
2021/12/10 03:46:32;;;;;;;72.30;40.67;;;;;;;;;;4979870;28;20484;-76
2021/12/10 03:49:03;;;;;;;75.77;42.50;;;;;;;;;;4983918;28;20428;-76
2021/12/10 03:51:29;;;;;;;84.33;45.27;;;;;;;;;;4984969;28;21308;-76
2021/12/10 03:53:55;;;;;;;75.53;42.17;;;;;;;;;;4980762;28;20424;-76
2021/12/10 03:56:22;;;;;;;79.57;42.73;;;;;;;;;;4980712;28;20476;-76
2021/12/10 03:58:49;;;;;;;92.40;49.10;;;;;;;;;;4976940;28;20586;-76
2021/12/10 04:01:17;;;;;;;69.30;39.50;;;;;;;;;;4978197;28;21366;-76
2021/12/10 04:03:44;;;;;;;70.70;40.47;;;;;;;;;;4993140;28;20535;-76
2021/12/10 04:06:10;;;;;;;70.73;41.60;;;;;;;;;;4996136;28;20493;-76
2021/12/10 04:08:36;;;;;;;80.80;43.90;;;;;;;;;;4994967;28;20416;-76
2021/12/10 04:11:03;;;;;;;75.63;42.17;;;;;;;;;;4980670;28;20435;-76
2021/12/10 04:13:29;;;;;;;77.03;42.67;;;;;;;;;;4980491;28;20417;-76
2021/12/10 04:15:55;;;;;;;78.97;44.17;;;;;;;;;;4981708;28;20467;-76
2021/12/10 04:18:21;;;;;;;71.33;40.73;;;;;;;;;;4975634;28;20459;-76
2021/12/10 04:20:48;;;;;;;66.80;39.77;;;;;;;;;;4978100;28;20428;-76
2021/12/10 04:23:16;;;;;;;75.43;42.60;;;;;;;;;;4979089;28;20424;-76
2021/12/10 04:25:42;;;;;;;112.90;53.93;;;;;;;;;;4979677;28;21090;-76
2021/12/10 04:28:09;;;;;;;82.70;45.33;;;;;;;;;;4981625;28;21399;-76
2021/12/10 04:30:39;;;;;;;109.87;53.87;;;;;;;;;;4992270;28;20447;-76
2021/12/10 04:33:06;;;;;;;93.13;49.47;;;;;;;;;;4980213;28;20501;-76
2021/12/10 04:35:32;;;;;;;90.60;47.27;;;;;;;;;;4993625;28;21326;-76
2021/12/10 04:37:58;;;;;;;78.10;42.93;;;;;;;;;;4977915;28;20459;-76
2021/12/10 04:40:25;;;;;;;81.10;45.00;;;;;;;;;;4979578;28;20619;-76
2021/12/10 04:42:51;;;;;;;91.53;48.60;;;;;;;;;;4979241;28;20416;-76
2021/12/10 04:45:18;;;;;;;72.20;41.77;;;;;;;;;;4981957;28;21296;-76
2021/12/10 04:47:45;;;;;;;83.00;45.10;;;;;;;;;;4982822;28;20427;-76
2021/12/10 04:50:12;;;;;;;73.63;42.77;;;;;;;;;;4979862;28;20432;-76
2021/12/10 04:52:38;;;;;;;78.57;44.13;;;;;;;;;;5009328;28;20439;-76
2021/12/10 04:55:06;;;;;;;84.83;47.30;;;;;;;;;;4994313;28;20423;-76
2021/12/10 04:57:32;;;;;;;70.53;41.40;;;;;;;;;;4978853;28;21324;-76
2021/12/10 04:59:59;;;;;;;80.80;43.80;;;;;;;;;;5011261;28;20413;-76
2021/12/10 05:02:26;;;;;;;68.87;40.23;;;;;;;;;;4975169;28;20460;-76
2021/12/10 05:04:56;;;;;;;81.33;43.27;;;;;;;;;;4978376;28;20424;-76
2021/12/10 05:07:23;;;;;;;76.27;42.10;;;;;;;;;;4980407;28;20401;-76
2021/12/10 05:09:50;;;;;;;79.30;43.77;;;;;;;;;;4978225;28;20887;-76
2021/12/10 05:12:16;;;;;;;118.27;54.00;;;;;;;;;;4970835;28;20432;-76
2021/12/10 05:14:42;;;;;;;82.13;45.47;;;;;;;;;;4980949;28;20428;-76
2021/12/10 05:17:09;;;;;;;72.97;41.67;;;;;;;;;;4975571;28;20431;-76
2021/12/10 05:19:39;;;;;;;73.50;42.97;;;;;;;;;;4977896;28;21273;-76
2021/12/10 05:22:07;;;;;;;78.30;44.53;;;;;;;;;;4981654;28;20428;-76
2021/12/10 05:24:33;;;;;;;101.90;50.90;;;;;;;;;;4993609;28;20417;-76
2021/12/10 05:26:59;;;;;;;96.67;51.27;;;;;;;;;;4979956;28;20424;-76
2021/12/10 05:29:26;;;;;;;87.27;47.70;;;;;;;;;;4976510;28;20429;-76
2021/12/10 05:31:54;;;;;;;73.47;43.87;;;;;;;;;;4994225;28;20431;-76
2021/12/10 05:34:21;;;;;;;84.13;48.33;;;;;;;;;;4993314;28;20556;-76
2021/12/10 05:36:47;;;;;;;82.23;44.73;;;;;;;;;;4977499;28;20429;-76
2021/12/10 05:39:14;;;;;;;75.73;43.40;;;;;;;;;;4990552;28;20456;-76
2021/12/10 05:41:41;;;;;;;72.43;40.93;;;;;;;;;;4980047;28;20424;-76
2021/12/10 05:44:07;;;;;;;79.10;45.30;;;;;;;;;;4981299;28;20502;-76
2021/12/10 05:46:34;;;;;;;79.87;44.37;;;;;;;;;;4981085;28;21270;-76
2021/12/10 05:49:00;;;;;;;82.60;45.80;;;;;;;;;;4992725;28;20424;-76
2021/12/10 05:51:26;;;;;;;85.23;46.17;;;;;;;;;;4979032;28;20512;-77
2021/12/10 05:53:52;;;;;;;80.27;44.87;;;;;;;;;;4994833;28;21652;-76
2021/12/10 05:56:19;;;;;;;88.70;49.07;;;;;;;;;;4990314;28;20451;-76
2021/12/10 05:58:45;;;;;;;105.67;52.27;;;;;;;;;;4992191;28;20454;-77
2021/12/10 06:01:13;;;;;;;90.10;48.43;;;;;;;;;;4980418;28;20421;-77
2021/12/10 06:03:40;;;;;;;100.60;52.17;;;;;;;;;;4977876;28;20416;-77
2021/12/10 06:06:07;;;;;;;87.03;50.03;;;;;;;;;;4978815;28;21444;-77
2021/12/10 06:08:33;;;;;;;79.70;44.63;;;;;;;;;;4983512;28;20420;-77
2021/12/10 06:11:00;;;;;;;118.53;57.73;;;;;;;;;;4973960;28;20428;-77
2021/12/10 06:13:27;;;;;;;126.17;61.00;;;;;;;;;;4993717;28;20436;-77
2021/12/10 06:15:53;;;;;;;90.00;50.27;;;;;;;;;;4977988;28;21661;-77
2021/12/10 06:18:19;;;;;;;134.27;62.30;;;;;;;;;;4976519;28;20453;-77
2021/12/10 06:20:48;;;;;;;120.93;58.90;;;;;;;;;;4990258;28;21437;-77
2021/12/10 06:23:14;;;;;;;120.90;59.67;;;;;;;;;;4978175;28;20516;-77
2021/12/10 06:25:40;;;;;;;147.80;69.67;;;;;;;;;;4990471;28;21104;-76
2021/12/10 06:28:07;;;;;;;138.00;65.97;;;;;;;;;;4972143;28;20412;-77
2021/12/10 06:30:36;;;;;;;102.03;53.03;;;;;;;;;;4993145;28;20448;-76
2021/12/10 06:33:04;;;;;;;85.67;48.07;;;;;;;;;;4977450;28;20424;-77
2021/12/10 06:35:31;;;;;;;72.23;41.90;;;;;;;;;;4978750;28;20425;-77
2021/12/10 06:37:57;;;;;;;91.77;48.57;;;;;;;;;;4971879;28;20558;-77
2021/12/10 06:40:26;;;;;;;92.27;49.13;;;;;;;;;;4980472;28;20514;-77
2021/12/10 06:42:52;;;;;;;111.53;55.23;;;;;;;;;;4989381;28;20427;-77
2021/12/10 06:45:21;;;;;;;87.20;48.40;;;;;;;;;;4975022;28;20424;-77
2021/12/10 06:47:48;;;;;;;91.27;50.83;;;;;;;;;;4976574;28;20420;-77
2021/12/10 06:50:18;;;;;;;100.67;53.30;;;;;;;;;;4973365;28;20472;-77
2021/12/10 06:52:45;;;;;;;88.00;47.90;;;;;;;;;;4976650;28;20409;-77
2021/12/10 06:55:11;;;;;;;122.33;62.50;;;;;;;;;;4994084;28;20416;-77
2021/12/10 06:57:38;;;;;;;83.90;47.00;;;;;;;;;;4992961;28;21043;-77
2021/12/10 07:00:25;;;;;;;109.30;57.27;;;;;;;;;;4978884;28;20496;-77
2021/12/10 07:02:52;;;;;;;112.97;58.17;;;;;;;;;;4977447;28;20425;-77
2021/12/10 07:05:18;;;;;;;89.47;49.93;;;;;;;;;;4979201;28;20471;-77
2021/12/10 07:07:44;;;;;;;100.53;52.07;;;;;;;;;;4996542;28;20531;-77
2021/12/10 07:10:11;;;;;;;81.20;46.63;;;;;;;;;;4982424;28;20404;-77
2021/12/10 07:12:38;;;;;;;83.23;47.37;;;;;;;;;;4980636;28;20420;-77
2021/12/10 07:15:06;;;;;;;102.93;53.40;;;;;;;;;;4994338;28;20420;-76
2021/12/10 07:17:33;;;;;;;93.00;51.33;;;;;;;;;;4979104;28;21419;-77
2021/12/10 07:19:59;;;;;;;109.30;57.07;;;;;;;;;;4979016;28;20420;-77
2021/12/10 07:22:25;;;;;;;86.13;47.73;;;;;;;;;;4991637;28;20536;-77
2021/12/10 07:24:51;;;;;;;85.83;47.17;;;;;;;;;;4978139;28;20416;-77
2021/12/10 07:27:18;;;;;;;85.57;48.10;;;;;;;;;;4978268;28;20582;-77
2021/12/10 07:29:44;;;;;;;89.93;49.53;;;;;;;;;;4977742;28;20545;-77
2021/12/10 07:32:11;;;;;;;87.37;49.00;;;;;;;;;;4996446;28;20424;-77
2021/12/10 07:34:37;;;;;;;76.37;44.03;;;;;;;;;;4990592;28;20868;-77
2021/12/10 07:37:03;;;;;;;83.77;49.57;;;;;;;;;;4979247;28;21397;-77
2021/12/10 07:39:30;;;;;;;82.07;47.27;;;;;;;;;;4983480;28;21530;-77
2021/12/10 07:41:59;;;;;;;73.47;43.17;;;;;;;;;;4978905;28;20416;-77
2021/12/10 07:44:25;;;;;;;89.40;48.70;;;;;;;;;;4991475;28;20424;-77
2021/12/10 07:46:51;;;;;;;84.37;47.93;;;;;;;;;;4989930;28;21376;-77
2021/12/10 07:49:26;;;;;;;73.17;44.33;;;;;;;;;;4982906;28;20421;-77
2021/12/10 07:51:52;;;;;;;75.70;44.03;;;;;;;;;;4995960;28;20480;-77
2021/12/10 07:54:18;;;;;;;77.20;45.33;;;;;;;;;;4981528;28;21011;-77
2021/12/10 07:56:44;;;;;;;80.67;45.87;;;;;;;;;;4981875;28;20483;-77
2021/12/10 07:59:11;;;;;;;86.03;48.97;;;;;;;;;;4980925;28;20452;-77
2021/12/10 08:01:37;;;;;;;77.77;46.13;;;;;;;;;;4981262;28;21351;-77
2021/12/10 08:04:04;;;;;;;75.73;44.63;;;;;;;;;;4996989;28;21636;-77
2021/12/10 08:06:31;;;;;;;85.67;50.30;;;;;;;;;;4984164;28;20424;-77
2021/12/10 08:08:57;;;;;;;82.03;47.37;;;;;;;;;;4982469;28;21293;-77
2021/12/10 08:11:24;;;;;;;80.07;46.50;;;;;;;;;;4981276;28;20608;-77
2021/12/10 08:13:50;;;;;;;92.73;50.60;;;;;;;;;;5008817;28;20559;-77
2021/12/10 08:16:17;;;;;;;94.57;50.43;;;;;;;;;;4978868;28;20421;-78
2021/12/10 08:18:45;;;;;;;72.73;43.47;;;;;;;;;;4980876;28;21153;-78
2021/12/10 08:21:11;;;;;;;75.90;41.30;;;;;;;;;;4980036;28;21008;-78
2021/12/10 08:23:38;;;;;;;73.00;43.60;;;;;;;;;;4982117;28;20443;-78
2021/12/10 08:26:05;;;;;;;63.50;39.57;;;;;;;;;;4979021;28;20420;-78
2021/12/10 08:28:33;;;;;;;66.27;39.50;;;;;;;;;;4982652;28;20472;-78
2021/12/10 08:30:59;;;;;;;70.17;40.90;;;;;;;;;;4979462;28;20424;-78
2021/12/10 08:33:26;;;;;;;88.57;47.50;;;;;;;;;;4987554;28;20492;-79
2021/12/10 08:35:58;;;;;;;70.83;41.47;;;;;;;;;;4981465;28;20425;-78
2021/12/10 08:38:25;;;;;;;75.90;43.77;;;;;;;;;;5010032;28;20519;-78
2021/12/10 08:41:02;;;;;;;68.37;39.77;;;;;;;;;;4978947;28;20412;-79
2021/12/10 08:43:29;;;;;;;70.63;40.10;;;;;;;;;;4995890;28;20416;-78
2021/12/10 08:45:56;;;;;;;63.83;39.27;;;;;;;;;;4997126;28;20826;-78
2021/12/10 08:48:23;;;;;;;55.50;32.47;;;;;;;;;;4990186;28;21018;-78
2021/12/10 08:50:49;;;;;;;51.33;31.43;;;;;;;;;;4981324;28;20547;-78
2021/12/10 08:53:16;;;;;;;46.43;29.67;;;;;;;;;;4982971;28;20416;-78
2021/12/10 08:55:44;;;;;;;54.37;32.20;;;;;;;;;;4979426;28;20413;-78
2021/12/10 08:58:11;;;;;;;54.67;33.87;;;;;;;;;;4997966;28;20456;-78
2021/12/10 09:00:39;;;;;;;54.00;32.20;;;;;;;;;;4996343;28;20526;-78
2021/12/10 09:03:06;;;;;;;50.83;33.27;;;;;;;;;;4982011;28;20413;-78
2021/12/10 09:05:32;;;;;;;52.67;32.07;;;;;;;;;;4981185;28;20413;-79
2021/12/10 09:07:58;;;;;;;62.97;37.17;;;;;;;;;;4980089;28;20471;-78
2021/12/10 09:10:28;;;;;;;47.90;30.20;;;;;;;;;;4996335;28;21217;-78
2021/12/10 09:12:54;;;;;;;54.87;32.47;;;;;;;;;;5011319;28;20436;-78
2021/12/10 09:15:22;;;;;;;50.50;30.97;;;;;;;;;;4979981;28;20420;-79
2021/12/10 09:17:49;;;;;;;55.73;32.13;;;;;;;;;;4980885;28;20482;-79
2021/12/10 09:20:18;;;;;;;50.43;30.80;;;;;;;;;;4979101;28;20424;-78
2021/12/10 09:22:47;;;;;;;50.97;29.87;;;;;;;;;;4979845;28;20413;-79
2021/12/10 09:25:15;;;;;;;48.87;29.60;;;;;;;;;;4980810;28;20989;-79
2021/12/10 09:27:41;;;;;;;46.60;28.43;;;;;;;;;;4994262;28;20412;-79
2021/12/10 09:30:09;;;;;;;47.97;29.33;;;;;;;;;;4981806;28;21056;-79
2021/12/10 09:32:35;;;;;;;47.27;28.90;;;;;;;;;;4976395;28;21122;-78
2021/12/10 09:35:05;;;;;;;53.10;32.27;;;;;;;;;;4979608;28;20490;-78
2021/12/10 09:37:31;;;;;;;58.57;34.47;;;;;;;;;;4965790;28;20415;-79
2021/12/10 09:39:58;;;;;;;51.53;31.90;;;;;;;;;;4981835;28;20520;-79
2021/12/10 09:42:25;;;;;;;53.77;32.27;;;;;;;;;;4993191;28;20425;-79
2021/12/10 09:44:52;;;;;;;55.20;32.00;;;;;;;;;;4982877;28;20416;-78
2021/12/10 09:47:18;;;;;;;55.57;32.90;;;;;;;;;;4979160;28;20416;-79
2021/12/10 09:49:46;;;;;;;61.40;35.43;;;;;;;;;;4983026;28;20420;-78
2021/12/10 09:52:13;;;;;;;57.73;35.87;;;;;;;;;;4979604;28;20428;-79
2021/12/10 09:54:39;;;;;;;58.27;35.27;;;;;;;;;;4976581;28;20424;-78
2021/12/10 09:57:10;;;;;;;65.97;40.43;;;;;;;;;;4984280;28;20424;-78
2021/12/10 09:59:38;;;;;;;69.50;39.97;;;;;;;;;;5006065;28;20457;-78
2021/12/10 10:02:06;;;;;;;67.23;39.97;;;;;;;;;;4978770;28;20420;-78
2021/12/10 10:04:35;;;;;;;63.60;39.70;;;;;;;;;;4980993;28;21436;-78
2021/12/10 10:07:05;;;;;;;62.10;37.43;;;;;;;;;;4991514;28;21011;-79
2021/12/10 10:09:31;;;;;;;65.73;40.10;;;;;;;;;;4996372;28;20436;-78
2021/12/10 10:12:00;;;;;;;62.03;40.10;;;;;;;;;;4981114;28;20419;-78
2021/12/10 10:14:26;;;;;;;59.77;37.03;;;;;;;;;;4991180;28;21414;-79
2021/12/10 10:16:53;;;;;;;58.77;37.27;;;;;;;;;;4981668;28;20426;-78
2021/12/10 10:19:19;;;;;;;65.50;38.87;;;;;;;;;;4993521;28;20620;-78
2021/12/10 10:21:48;;;;;;;60.03;37.83;;;;;;;;;;4994721;28;20531;-78
2021/12/10 10:24:15;;;;;;;64.53;39.93;;;;;;;;;;4994272;28;20451;-78
2021/12/10 10:26:48;;;;;;;61.87;39.27;;;;;;;;;;4975547;28;20417;-78
2021/12/10 10:29:16;;;;;;;60.73;37.13;;;;;;;;;;4981187;28;20461;-79
2021/12/10 10:31:48;;;;;;;59.73;38.00;;;;;;;;;;5009830;28;20886;-78
2021/12/10 10:34:14;;;;;;;71.43;43.20;;;;;;;;;;4980611;28;20489;-78
2021/12/10 10:36:41;;;;;;;63.13;41.10;;;;;;;;;;4978530;28;20440;-79
2021/12/10 10:39:16;;;;;;;72.23;43.80;;;;;;;;;;4994051;28;20534;-79
2021/12/10 10:41:44;;;;;;;60.10;38.20;;;;;;;;;;4979329;28;20589;-78
2021/12/10 10:44:10;;;;;;;62.77;40.20;;;;;;;;;;5010167;28;20495;-78
2021/12/10 10:46:36;;;;;;;60.17;38.40;;;;;;;;;;5000024;28;20405;-78
2021/12/10 10:49:03;;;;;;;74.70;46.17;;;;;;;;;;4997507;28;20880;-78
2021/12/10 10:51:49;;;;;;;71.50;46.13;;;;;;;;;;5014773;28;20396;-78
2021/12/10 10:54:15;;;;;;;75.37;47.77;;;;;;;;;;4977406;28;20491;-78
2021/12/10 10:56:44;;;;;;;76.83;46.77;;;;;;;;;;5013856;28;20412;-78
2021/12/10 10:59:24;;;;;;;78.93;49.53;;;;;;;;;;4980470;28;20445;-78
2021/12/10 11:01:58;;;;;;;73.60;45.13;;;;;;;;;;4985023;28;20409;-78
2021/12/10 11:04:27;;;;;;;67.97;42.60;;;;;;;;;;4978635;28;20429;-78
2021/12/10 11:06:55;;;;;;;83.23;48.47;;;;;;;;;;4983007;28;20428;-78
2021/12/10 11:09:21;;;;;;;75.57;47.67;;;;;;;;;;4983090;28;20974;-78
2021/12/10 11:11:50;;;;;;;78.50;47.93;;;;;;;;;;4982952;28;20421;-78
2021/12/10 11:14:21;;;;;;;83.53;48.70;;;;;;;;;;4996671;28;21351;-78
2021/12/10 11:16:49;;;;;;;81.27;50.27;;;;;;;;;;4996874;28;21452;-78
2021/12/10 11:19:18;;;;;;;76.17;47.17;;;;;;;;;;4998159;28;20505;-78
2021/12/10 11:21:47;;;;;;;76.07;47.20;;;;;;;;;;4984969;28;20421;-78
2021/12/10 11:24:16;;;;;;;91.40;55.17;;;;;;;;;;4982714;28;20408;-78
2021/12/10 11:26:54;;;;;;;80.17;49.90;;;;;;;;;;4981476;28;20558;-79
2021/12/10 11:29:27;;;;;;;88.40;54.23;;;;;;;;;;5015183;28;20987;-78
2021/12/10 11:32:01;;;;;;;94.87;53.57;;;;;;;;;;4997472;28;20518;-78
2021/12/10 11:35:00;;;;;;;80.67;49.03;;;;;;;;;;4981871;28;20415;-79
2021/12/10 11:37:44;;;;;;;88.67;51.60;;;;;;;;;;4951819;28;20419;-79
2021/12/10 11:40:34;;;;;;;93.83;54.43;;;;;;;;;;5000874;28;20412;-80
2021/12/10 11:55:42;;;;;;;;;;;;;;;;;;;;;
2021/12/10 12:07:29;;;;;;;109.27;61.13;;;;;;;;;;5037120;23;20482;-33
2021/12/10 12:09:58;;;;;;;106.47;57.47;;;;;;;;;;4932548;28;20469;-33
2021/12/10 12:12:29;;;;;;;131.70;68.00;;;;;;;;;;4997602;28;20424;-35
2021/12/10 12:15:09;;;;;;;123.23;67.13;;;;;;;;;;5005793;28;20865;-32
2021/12/10 12:17:36;;;;;;;137.83;70.93;;;;;;;;;;5009135;28;20673;-32
2021/12/10 12:20:09;;;;;;;107.77;60.03;;;;;;;;;;4988398;28;20886;-32
2021/12/10 12:25:37;;;;;;;119.87;63.00;;;;;;;;;;4986008;28;20986;-34
2021/12/10 12:28:05;;;;;;;110.20;60.50;;;;;;;;;;5009589;28;20434;-34
2021/12/10 12:30:31;;;;;;;98.97;53.67;;;;;;;;;;5011228;28;20489;-34
2021/12/10 12:33:00;;;;;;;95.03;52.03;;;;;;;;;;5031011;28;21019;-35
2021/12/10 12:35:29;;;;;;;113.10;58.73;;;;;;;;;;5005348;28;20411;-35
2021/12/10 12:38:09;;;;;;;100.37;54.03;;;;;;;;;;4993435;28;21145;-35
2021/12/10 12:40:38;;;;;;;116.27;58.70;;;;;;;;;;5009723;28;20839;-35
2021/12/10 12:43:06;;;;;;;92.97;53.37;;;;;;;;;;5013669;28;20419;-35
2021/12/10 12:45:33;;;;;;;118.47;63.47;;;;;;;;;;5008179;28;20420;-35
2021/12/10 12:47:59;;;;;;;123.50;63.97;;;;;;;;;;5007209;28;20655;-35
2021/12/10 12:50:27;;;;;;;110.37;61.50;;;;;;;;;;5006145;28;20529;-34
2021/12/10 12:53:06;;;;;;;108.33;59.53;;;;;;;;;;4989796;28;20982;-35
2021/12/10 12:55:48;;;;;;;110.27;59.77;;;;;;;;;;4994188;28;20451;-34
2021/12/10 12:58:28;;;;;;;111.90;60.50;;;;;;;;;;5009919;28;20443;-35
2021/12/10 13:00:57;;;;;;;122.63;61.50;;;;;;;;;;5008570;28;21240;-34
2021/12/10 13:03:43;;;;;;;102.33;57.03;;;;;;;;;;4993166;28;20415;-35
2021/12/10 13:06:12;;;;;;;98.43;54.83;;;;;;;;;;5009284;28;20423;-35
2021/12/10 13:08:43;;;;;;;120.77;63.67;;;;;;;;;;5021889;28;20408;-35
2021/12/10 13:11:19;;;;;;;112.20;59.30;;;;;;;;;;5009478;28;20435;-34
2021/12/10 13:13:50;;;;;;;100.63;57.43;;;;;;;;;;5008498;28;20411;-35
2021/12/10 13:16:29;;;;;;;110.93;60.00;;;;;;;;;;5009052;28;20613;-35
2021/12/10 13:18:55;;;;;;;115.60;60.47;;;;;;;;;;5008020;28;20902;-34
2021/12/10 13:21:21;;;;;;;114.33;62.57;;;;;;;;;;4991390;28;20990;-34
2021/12/10 13:23:47;;;;;;;97.20;54.97;;;;;;;;;;4991910;28;20422;-35
2021/12/10 13:26:16;;;;;;;113.80;59.77;;;;;;;;;;4994035;28;20554;-35
2021/12/10 13:28:42;;;;;;;130.20;65.80;;;;;;;;;;5008004;28;20416;-36
2021/12/10 13:31:11;;;;;;;116.90;60.23;;;;;;;;;;5008720;28;21507;-34
2021/12/10 13:33:39;;;;;;;108.50;55.33;;;;;;;;;;5006936;28;20411;-34
2021/12/10 13:36:06;;;;;;;117.47;61.40;;;;;;;;;;5022921;28;20430;-34
2021/12/10 13:38:33;;;;;;;108.97;60.80;;;;;;;;;;5006767;28;20648;-34
2021/12/10 13:41:00;;;;;;;85.37;49.23;;;;;;;;;;5006609;28;20450;-44
2021/12/10 13:43:27;;;;;;;107.20;57.80;;;;;;;;;;5023537;28;20853;-34
2021/12/10 13:45:59;;;;;;;104.83;55.80;;;;;;;;;;4993048;28;20521;-34
2021/12/10 13:48:37;;;;;;;101.53;54.57;;;;;;;;;;4987387;28;20740;-34
2021/12/10 13:51:04;;;;;;;81.57;47.23;;;;;;;;;;4990853;28;20434;-35
2021/12/10 13:53:30;;;;;;;110.60;56.37;;;;;;;;;;5006316;28;20520;-34
2021/12/10 13:55:58;;;;;;;104.43;55.23;;;;;;;;;;5007929;28;20422;-34
2021/12/10 13:58:43;;;;;;;90.63;50.20;;;;;;;;;;5008979;28;20540;-34
2021/12/10 14:01:15;;;;;;;82.30;48.43;;;;;;;;;;5007051;28;20454;-34
2021/12/10 14:03:44;;;;;;;101.60;55.30;;;;;;;;;;4988631;28;20426;-34
2021/12/10 14:06:14;;;;;;;94.47;52.90;;;;;;;;;;5006093;28;21223;-35
2021/12/10 14:08:40;;;;;;;106.03;55.03;;;;;;;;;;4991578;28;20544;-34
2021/12/10 14:11:12;;;;;;;86.60;49.67;;;;;;;;;;4990406;28;20419;-35
2021/12/10 14:13:38;;;;;;;97.67;52.17;;;;;;;;;;5006045;28;21061;-34
2021/12/10 14:16:11;;;;;;;102.33;51.57;;;;;;;;;;5005770;28;20420;-35
2021/12/10 14:18:44;;;;;;;100.63;51.60;;;;;;;;;;5005577;28;21252;-35
2021/12/10 14:21:10;;;;;;;111.00;55.40;;;;;;;;;;5005853;28;20454;-34
2021/12/10 14:23:37;;;;;;;107.93;52.27;;;;;;;;;;5004859;28;21296;-35
2021/12/10 14:26:06;;;;;;;99.63;51.73;;;;;;;;;;4988255;28;20415;-34
2021/12/10 14:28:41;;;;;;;127.17;62.80;;;;;;;;;;5005152;28;20546;-34
2021/12/10 14:31:11;;;;;;;99.27;51.73;;;;;;;;;;5004948;28;20439;-35
2021/12/10 14:33:40;;;;;;;139.73;66.47;;;;;;;;;;4985796;28;20439;-35
2021/12/10 14:36:10;;;;;;;114.10;55.43;;;;;;;;;;5001393;28;20459;-35
2021/12/10 14:38:46;;;;;;;123.77;57.83;;;;;;;;;;5003817;28;21653;-34
2021/12/10 14:41:18;;;;;;;149.23;66.07;;;;;;;;;;5004275;28;21425;-34
2021/12/10 14:43:49;;;;;;;139.57;64.13;;;;;;;;;;5003945;28;20898;-34
2021/12/10 14:46:17;;;;;;;122.93;59.03;;;;;;;;;;5005210;28;20420;-35
2021/12/10 14:49:20;;;;;;;127.50;62.07;;;;;;;;;;5000623;28;20439;-35
2021/12/10 14:52:04;;;;;;;120.53;57.97;;;;;;;;;;4941108;28;20430;-35
2021/12/10 14:54:49;;;;;;;106.67;54.37;;;;;;;;;;4998169;28;21136;-35
2021/12/10 14:57:16;;;;;;;120.87;58.77;;;;;;;;;;4997512;28;20932;-35